sensor_id;sensor_type;location;lat;lon;timestamp;temperature;humidity
6357;DHT22;3211;53.452;-2.264;2022-11-15T00:01:00;10.20;99.90
6357;DHT22;3211;53.452;-2.264;2022-11-15T00:03:27;10.20;99.90
6357;DHT22;3211;53.452;-2.264;2022-11-15T00:06:01;10.10;99.90
6357;DHT22;3211;53.452;-2.264;2022-11-15T00:08:29;10.10;99.90
6357;DHT22;3211;53.452;-2.264;2022-11-15T00:10:59;10.00;99.90
6357;DHT22;3211;53.452;-2.264;2022-11-15T00:13:27;10.10;99.90
6357;DHT22;3211;53.452;-2.264;2022-11-15T00:15:57;10.00;99.90
6357;DHT22;3211;53.452;-2.264;2022-11-15T00:18:25;10.00;99.90
6357;DHT22;3211;53.452;-2.264;2022-11-15T00:20:52;10.00;99.90
6357;DHT22;3211;53.452;-2.264;2022-11-15T00:23:19;10.00;99.90
6357;DHT22;3211;53.452;-2.264;2022-11-15T00:25:46;10.00;99.90
6357;DHT22;3211;53.452;-2.264;2022-11-15T00:28:14;10.00;99.90
6357;DHT22;3211;53.452;-2.264;2022-11-15T00:30:44;10.00;99.90
6357;DHT22;3211;53.452;-2.264;2022-11-15T00:33:11;10.00;99.90
6357;DHT22;3211;53.452;-2.264;2022-11-15T00:35:41;10.00;99.90
6357;DHT22;3211;53.452;-2.264;2022-11-15T00:38:08;10.10;99.90
6357;DHT22;3211;53.452;-2.264;2022-11-15T00:40:35;10.00;99.90
6357;DHT22;3211;53.452;-2.264;2022-11-15T00:43:22;10.00;99.90
6357;DHT22;3211;53.452;-2.264;2022-11-15T00:45:49;10.00;99.90
6357;DHT22;3211;53.452;-2.264;2022-11-15T00:48:16;9.90;99.90
6357;DHT22;3211;53.452;-2.264;2022-11-15T00:50:46;9.90;99.90
6357;DHT22;3211;53.452;-2.264;2022-11-15T00:53:13;9.90;99.90
6357;DHT22;3211;53.452;-2.264;2022-11-15T00:55:43;9.90;99.90
6357;DHT22;3211;53.452;-2.264;2022-11-15T00:58:10;9.90;99.90
6357;DHT22;3211;53.452;-2.264;2022-11-15T01:00:38;9.90;99.90
6357;DHT22;3211;53.452;-2.264;2022-11-15T01:03:05;9.90;99.90
6357;DHT22;3211;53.452;-2.264;2022-11-15T01:05:32;9.90;99.90
6357;DHT22;3211;53.452;-2.264;2022-11-15T01:08:18;10.00;99.90
6357;DHT22;3211;53.452;-2.264;2022-11-15T01:10:45;10.00;99.90
6357;DHT22;3211;53.452;-2.264;2022-11-15T01:13:12;10.00;99.90
6357;DHT22;3211;53.452;-2.264;2022-11-15T01:15:43;10.10;99.90
6357;DHT22;3211;53.452;-2.264;2022-11-15T01:18:10;10.00;99.90
6357;DHT22;3211;53.452;-2.264;2022-11-15T01:20:39;10.10;99.90
6357;DHT22;3211;53.452;-2.264;2022-11-15T01:23:07;10.10;99.90
6357;DHT22;3211;53.452;-2.264;2022-11-15T01:25:34;10.10;99.90
6357;DHT22;3211;53.452;-2.264;2022-11-15T01:28:04;10.10;99.90
6357;DHT22;3211;53.452;-2.264;2022-11-15T01:30:31;10.00;99.90
6357;DHT22;3211;53.452;-2.264;2022-11-15T01:33:02;10.10;99.90
6357;DHT22;3211;53.452;-2.264;2022-11-15T01:35:29;10.10;99.90
6357;DHT22;3211;53.452;-2.264;2022-11-15T01:37:59;10.10;99.90
6357;DHT22;3211;53.452;-2.264;2022-11-15T01:40:26;10.20;99.90
6357;DHT22;3211;53.452;-2.264;2022-11-15T01:42:56;10.10;99.90
6357;DHT22;3211;53.452;-2.264;2022-11-15T01:45:23;10.20;99.90
6357;DHT22;3211;53.452;-2.264;2022-11-15T01:47:52;10.20;99.90
6357;DHT22;3211;53.452;-2.264;2022-11-15T01:50:24;10.20;99.90
6357;DHT22;3211;53.452;-2.264;2022-11-15T01:52:53;10.20;99.90
6357;DHT22;3211;53.452;-2.264;2022-11-15T01:55:22;10.30;99.90
6357;DHT22;3211;53.452;-2.264;2022-11-15T01:57:53;10.30;99.90
6357;DHT22;3211;53.452;-2.264;2022-11-15T02:00:22;10.30;99.90
6357;DHT22;3211;53.452;-2.264;2022-11-15T02:02:51;10.30;99.90
6357;DHT22;3211;53.452;-2.264;2022-11-15T02:05:18;10.20;99.90
6357;DHT22;3211;53.452;-2.264;2022-11-15T02:07:47;10.30;99.90
6357;DHT22;3211;53.452;-2.264;2022-11-15T02:10:18;10.30;99.90
6357;DHT22;3211;53.452;-2.264;2022-11-15T02:12:46;10.30;99.90
6357;DHT22;3211;53.452;-2.264;2022-11-15T02:15:14;10.40;99.90
6357;DHT22;3211;53.452;-2.264;2022-11-15T02:17:58;10.40;99.90
6357;DHT22;3211;53.452;-2.264;2022-11-15T02:20:48;10.40;99.90
6357;DHT22;3211;53.452;-2.264;2022-11-15T02:30:21;10.60;99.90
6357;DHT22;3211;53.452;-2.264;2022-11-15T02:33:03;10.60;99.90
6357;DHT22;3211;53.452;-2.264;2022-11-15T02:35:39;10.60;99.90
6357;DHT22;3211;53.452;-2.264;2022-11-15T02:38:33;10.60;99.90
6357;DHT22;3211;53.452;-2.264;2022-11-15T02:41:04;10.70;99.90
6357;DHT22;3211;53.452;-2.264;2022-11-15T02:43:58;10.70;99.90
6357;DHT22;3211;53.452;-2.264;2022-11-15T02:46:33;10.80;99.90
6357;DHT22;3211;53.452;-2.264;2022-11-15T02:49:40;10.80;99.90
6357;DHT22;3211;53.452;-2.264;2022-11-15T02:52:07;10.90;99.90
6357;DHT22;3211;53.452;-2.264;2022-11-15T02:54:54;10.90;99.90
6357;DHT22;3211;53.452;-2.264;2022-11-15T02:57:32;10.90;99.90
6357;DHT22;3211;53.452;-2.264;2022-11-15T03:00:21;10.90;99.90
6357;DHT22;3211;53.452;-2.264;2022-11-15T03:03:02;10.90;99.90
6357;DHT22;3211;53.452;-2.264;2022-11-15T03:05:37;10.90;99.90
6357;DHT22;3211;53.452;-2.264;2022-11-15T03:08:13;11.00;99.90
6357;DHT22;3211;53.452;-2.264;2022-11-15T03:11:07;11.00;99.90
6357;DHT22;3211;53.452;-2.264;2022-11-15T03:13:39;11.00;99.90
6357;DHT22;3211;53.452;-2.264;2022-11-15T03:16:16;11.10;99.90
6357;DHT22;3211;53.452;-2.264;2022-11-15T03:18:49;11.00;99.90
6357;DHT22;3211;53.452;-2.264;2022-11-15T03:21:20;11.00;99.90
6357;DHT22;3211;53.452;-2.264;2022-11-15T03:23:49;11.00;99.90
6357;DHT22;3211;53.452;-2.264;2022-11-15T03:26:19;10.90;99.90
6357;DHT22;3211;53.452;-2.264;2022-11-15T03:28:52;10.90;99.90
6357;DHT22;3211;53.452;-2.264;2022-11-15T03:31:22;10.90;99.90
6357;DHT22;3211;53.452;-2.264;2022-11-15T03:34:12;10.90;99.90
6357;DHT22;3211;53.452;-2.264;2022-11-15T03:36:54;10.90;99.90
6357;DHT22;3211;53.452;-2.264;2022-11-15T03:39:21;10.80;99.90
6357;DHT22;3211;53.452;-2.264;2022-11-15T03:42:15;10.80;99.90
6357;DHT22;3211;53.452;-2.264;2022-11-15T03:44:48;10.80;99.90
6357;DHT22;3211;53.452;-2.264;2022-11-15T03:47:21;10.80;99.90
6357;DHT22;3211;53.452;-2.264;2022-11-15T03:49:52;10.90;99.90
6357;DHT22;3211;53.452;-2.264;2022-11-15T03:52:21;10.90;99.90
6357;DHT22;3211;53.452;-2.264;2022-11-15T03:54:52;10.80;99.90
6357;DHT22;3211;53.452;-2.264;2022-11-15T03:57:19;10.90;99.90
6357;DHT22;3211;53.452;-2.264;2022-11-15T03:59:49;10.80;99.90
6357;DHT22;3211;53.452;-2.264;2022-11-15T04:02:16;10.80;99.90
6357;DHT22;3211;53.452;-2.264;2022-11-15T04:04:45;10.80;99.90
6357;DHT22;3211;53.452;-2.264;2022-11-15T04:07:14;10.80;99.90
6357;DHT22;3211;53.452;-2.264;2022-11-15T04:09:41;10.80;99.90
6357;DHT22;3211;53.452;-2.264;2022-11-15T04:12:22;10.80;99.90
6357;DHT22;3211;53.452;-2.264;2022-11-15T04:14:58;10.90;99.90
6357;DHT22;3211;53.452;-2.264;2022-11-15T04:17:53;10.90;99.90
6357;DHT22;3211;53.452;-2.264;2022-11-15T04:20:22;10.90;99.90
6357;DHT22;3211;53.452;-2.264;2022-11-15T04:23:11;10.90;99.90
6357;DHT22;3211;53.452;-2.264;2022-11-15T04:25:58;11.00;99.90
6357;DHT22;3211;53.452;-2.264;2022-11-15T04:28:26;10.90;99.90
6357;DHT22;3211;53.452;-2.264;2022-11-15T04:30:56;11.00;99.90
6357;DHT22;3211;53.452;-2.264;2022-11-15T04:33:23;10.90;99.90
6357;DHT22;3211;53.452;-2.264;2022-11-15T04:35:50;10.90;99.90
6357;DHT22;3211;53.452;-2.264;2022-11-15T04:38:51;10.90;99.90
6357;DHT22;3211;53.452;-2.264;2022-11-15T04:41:18;10.90;99.90
6357;DHT22;3211;53.452;-2.264;2022-11-15T04:44:03;10.90;99.90
6357;DHT22;3211;53.452;-2.264;2022-11-15T04:46:30;10.80;99.90
6357;DHT22;3211;53.452;-2.264;2022-11-15T04:48:57;10.90;99.90
6357;DHT22;3211;53.452;-2.264;2022-11-15T04:51:24;10.80;99.90
6357;DHT22;3211;53.452;-2.264;2022-11-15T04:54:11;10.80;99.90
6357;DHT22;3211;53.452;-2.264;2022-11-15T04:56:38;10.80;99.90
6357;DHT22;3211;53.452;-2.264;2022-11-15T04:59:05;10.80;99.90
6357;DHT22;3211;53.452;-2.264;2022-11-15T05:01:35;10.80;99.90
6357;DHT22;3211;53.452;-2.264;2022-11-15T05:04:03;10.70;99.90
6357;DHT22;3211;53.452;-2.264;2022-11-15T05:06:48;10.80;99.90
6357;DHT22;3211;53.452;-2.264;2022-11-15T05:09:17;10.80;99.90
6357;DHT22;3211;53.452;-2.264;2022-11-15T05:11:48;10.70;99.90
6357;DHT22;3211;53.452;-2.264;2022-11-15T05:14:15;10.70;99.90
6357;DHT22;3211;53.452;-2.264;2022-11-15T05:16:43;10.70;99.90
6357;DHT22;3211;53.452;-2.264;2022-11-15T05:19:10;10.70;99.90
6357;DHT22;3211;53.452;-2.264;2022-11-15T05:21:37;10.70;99.90
6357;DHT22;3211;53.452;-2.264;2022-11-15T05:24:05;10.70;99.90
6357;DHT22;3211;53.452;-2.264;2022-11-15T05:26:37;10.70;99.90
6357;DHT22;3211;53.452;-2.264;2022-11-15T05:29:04;10.80;99.90
6357;DHT22;3211;53.452;-2.264;2022-11-15T05:31:33;10.80;99.90
6357;DHT22;3211;53.452;-2.264;2022-11-15T05:34:05;10.80;99.90
6357;DHT22;3211;53.452;-2.264;2022-11-15T05:36:35;10.90;99.90
6357;DHT22;3211;53.452;-2.264;2022-11-15T05:39:04;10.90;99.90
6357;DHT22;3211;53.452;-2.264;2022-11-15T05:41:37;10.90;99.90
6357;DHT22;3211;53.452;-2.264;2022-11-15T05:44:06;10.90;99.90
6357;DHT22;3211;53.452;-2.264;2022-11-15T05:46:35;10.90;99.90
6357;DHT22;3211;53.452;-2.264;2022-11-15T05:49:05;10.90;99.90
6357;DHT22;3211;53.452;-2.264;2022-11-15T05:51:34;11.00;99.90
6357;DHT22;3211;53.452;-2.264;2022-11-15T05:54:01;11.00;99.90
6357;DHT22;3211;53.452;-2.264;2022-11-15T05:56:31;10.90;99.90
6357;DHT22;3211;53.452;-2.264;2022-11-15T05:59:00;11.00;99.90
6357;DHT22;3211;53.452;-2.264;2022-11-15T06:01:30;11.00;99.90
6357;DHT22;3211;53.452;-2.264;2022-11-15T06:03:58;11.00;99.90
6357;DHT22;3211;53.452;-2.264;2022-11-15T06:06:26;11.00;99.90
6357;DHT22;3211;53.452;-2.264;2022-11-15T06:08:54;11.10;99.90
6357;DHT22;3211;53.452;-2.264;2022-11-15T06:11:21;11.00;99.90
6357;DHT22;3211;53.452;-2.264;2022-11-15T06:13:48;11.00;99.90
6357;DHT22;3211;53.452;-2.264;2022-11-15T06:16:16;11.00;99.90
6357;DHT22;3211;53.452;-2.264;2022-11-15T06:18:43;11.00;99.90
6357;DHT22;3211;53.452;-2.264;2022-11-15T06:21:10;11.10;99.90
6357;DHT22;3211;53.452;-2.264;2022-11-15T06:23:56;11.00;99.90
6357;DHT22;3211;53.452;-2.264;2022-11-15T06:26:23;11.00;99.90
6357;DHT22;3211;53.452;-2.264;2022-11-15T06:28:50;11.00;99.90
6357;DHT22;3211;53.452;-2.264;2022-11-15T06:31:18;11.00;99.90
6357;DHT22;3211;53.452;-2.264;2022-11-15T06:33:46;11.00;99.90
6357;DHT22;3211;53.452;-2.264;2022-11-15T06:36:15;11.00;99.90
6357;DHT22;3211;53.452;-2.264;2022-11-15T06:38:43;11.10;99.90
6357;DHT22;3211;53.452;-2.264;2022-11-15T06:41:10;11.20;99.90
6357;DHT22;3211;53.452;-2.264;2022-11-15T06:43:38;11.20;99.90
6357;DHT22;3211;53.452;-2.264;2022-11-15T06:46:06;11.30;99.90
6357;DHT22;3211;53.452;-2.264;2022-11-15T06:48:35;11.30;99.90
6357;DHT22;3211;53.452;-2.264;2022-11-15T06:51:04;11.30;99.90
6357;DHT22;3211;53.452;-2.264;2022-11-15T06:53:31;11.30;99.90
6357;DHT22;3211;53.452;-2.264;2022-11-15T06:55:59;11.40;99.90
6357;DHT22;3211;53.452;-2.264;2022-11-15T06:58:26;11.40;99.90
6357;DHT22;3211;53.452;-2.264;2022-11-15T07:00:57;11.40;99.90
6357;DHT22;3211;53.452;-2.264;2022-11-15T07:03:24;11.40;99.90
6357;DHT22;3211;53.452;-2.264;2022-11-15T07:05:54;11.30;99.90
6357;DHT22;3211;53.452;-2.264;2022-11-15T07:08:22;11.30;99.90
6357;DHT22;3211;53.452;-2.264;2022-11-15T07:10:49;11.30;99.90
6357;DHT22;3211;53.452;-2.264;2022-11-15T07:13:16;11.20;99.90
6357;DHT22;3211;53.452;-2.264;2022-11-15T07:15:43;11.30;99.90
6357;DHT22;3211;53.452;-2.264;2022-11-15T07:18:10;11.20;99.90
6357;DHT22;3211;53.452;-2.264;2022-11-15T07:20:37;11.20;99.90
6357;DHT22;3211;53.452;-2.264;2022-11-15T07:23:06;11.20;99.90
6357;DHT22;3211;53.452;-2.264;2022-11-15T07:25:33;11.20;99.90
6357;DHT22;3211;53.452;-2.264;2022-11-15T07:28:01;11.20;99.90
6357;DHT22;3211;53.452;-2.264;2022-11-15T07:30:28;11.20;99.90
6357;DHT22;3211;53.452;-2.264;2022-11-15T07:32:57;11.20;99.90
6357;DHT22;3211;53.452;-2.264;2022-11-15T07:35:25;11.20;99.90
6357;DHT22;3211;53.452;-2.264;2022-11-15T07:37:56;11.20;99.90
6357;DHT22;3211;53.452;-2.264;2022-11-15T07:40:25;11.20;99.90
6357;DHT22;3211;53.452;-2.264;2022-11-15T07:42:52;11.20;99.90
6357;DHT22;3211;53.452;-2.264;2022-11-15T07:45:25;11.20;99.90
6357;DHT22;3211;53.452;-2.264;2022-11-15T07:47:53;11.20;99.90
6357;DHT22;3211;53.452;-2.264;2022-11-15T07:50:21;11.20;99.90
6357;DHT22;3211;53.452;-2.264;2022-11-15T07:52:53;11.20;99.90
6357;DHT22;3211;53.452;-2.264;2022-11-15T07:55:21;11.20;99.90
6357;DHT22;3211;53.452;-2.264;2022-11-15T07:57:49;11.20;99.90
6357;DHT22;3211;53.452;-2.264;2022-11-15T08:00:17;11.20;99.90
6357;DHT22;3211;53.452;-2.264;2022-11-15T08:02:45;11.20;99.90
6357;DHT22;3211;53.452;-2.264;2022-11-15T08:05:12;11.10;99.90
6357;DHT22;3211;53.452;-2.264;2022-11-15T08:07:39;11.20;99.90
6357;DHT22;3211;53.452;-2.264;2022-11-15T08:10:07;11.20;99.90
6357;DHT22;3211;53.452;-2.264;2022-11-15T08:12:35;11.20;99.90
6357;DHT22;3211;53.452;-2.264;2022-11-15T08:15:04;11.10;99.90
6357;DHT22;3211;53.452;-2.264;2022-11-15T08:17:31;11.20;99.90
6357;DHT22;3211;53.452;-2.264;2022-11-15T08:19:59;11.10;99.90
6357;DHT22;3211;53.452;-2.264;2022-11-15T08:22:26;11.20;99.90
6357;DHT22;3211;53.452;-2.264;2022-11-15T08:24:53;11.10;99.90
6357;DHT22;3211;53.452;-2.264;2022-11-15T08:27:20;11.20;99.90
6357;DHT22;3211;53.452;-2.264;2022-11-15T08:29:49;11.20;99.90
6357;DHT22;3211;53.452;-2.264;2022-11-15T08:32:17;11.20;99.90
6357;DHT22;3211;53.452;-2.264;2022-11-15T08:34:44;11.20;99.90
6357;DHT22;3211;53.452;-2.264;2022-11-15T08:37:11;11.30;99.90
6357;DHT22;3211;53.452;-2.264;2022-11-15T08:39:39;11.30;99.90
6357;DHT22;3211;53.452;-2.264;2022-11-15T08:42:06;11.30;99.90
6357;DHT22;3211;53.452;-2.264;2022-11-15T08:44:33;11.30;99.90
6357;DHT22;3211;53.452;-2.264;2022-11-15T08:47:00;11.30;99.90
6357;DHT22;3211;53.452;-2.264;2022-11-15T08:49:28;11.40;99.90
6357;DHT22;3211;53.452;-2.264;2022-11-15T08:51:55;11.40;99.90
6357;DHT22;3211;53.452;-2.264;2022-11-15T08:54:22;11.50;99.90
6357;DHT22;3211;53.452;-2.264;2022-11-15T08:56:49;11.60;99.90
6357;DHT22;3211;53.452;-2.264;2022-11-15T08:59:16;11.50;99.90
6357;DHT22;3211;53.452;-2.264;2022-11-15T09:01:43;11.50;99.90
6357;DHT22;3211;53.452;-2.264;2022-11-15T09:04:10;11.50;99.90
6357;DHT22;3211;53.452;-2.264;2022-11-15T09:06:39;11.60;99.90
6357;DHT22;3211;53.452;-2.264;2022-11-15T09:09:07;11.60;99.90
6357;DHT22;3211;53.452;-2.264;2022-11-15T09:11:34;11.60;99.90
6357;DHT22;3211;53.452;-2.264;2022-11-15T09:14:01;11.60;99.90
6357;DHT22;3211;53.452;-2.264;2022-11-15T09:16:30;11.60;99.90
6357;DHT22;3211;53.452;-2.264;2022-11-15T09:18:57;11.60;99.90
6357;DHT22;3211;53.452;-2.264;2022-11-15T09:21:24;11.70;99.90
6357;DHT22;3211;53.452;-2.264;2022-11-15T09:23:53;11.70;99.90
6357;DHT22;3211;53.452;-2.264;2022-11-15T09:26:20;11.70;99.90
6357;DHT22;3211;53.452;-2.264;2022-11-15T09:28:47;11.60;99.90
6357;DHT22;3211;53.452;-2.264;2022-11-15T09:31:14;11.70;99.90
6357;DHT22;3211;53.452;-2.264;2022-11-15T09:33:43;11.80;99.90
6357;DHT22;3211;53.452;-2.264;2022-11-15T09:36:10;11.70;99.90
6357;DHT22;3211;53.452;-2.264;2022-11-15T09:38:39;11.70;99.90
6357;DHT22;3211;53.452;-2.264;2022-11-15T09:41:29;11.70;99.90
6357;DHT22;3211;53.452;-2.264;2022-11-15T09:44:08;11.70;99.90
6357;DHT22;3211;53.452;-2.264;2022-11-15T09:46:43;11.70;99.90
6357;DHT22;3211;53.452;-2.264;2022-11-15T09:49:14;11.70;99.90
6357;DHT22;3211;53.452;-2.264;2022-11-15T09:51:43;11.70;99.90
6357;DHT22;3211;53.452;-2.264;2022-11-15T09:54:21;11.70;99.90
6357;DHT22;3211;53.452;-2.264;2022-11-15T09:56:52;11.70;99.90
6357;DHT22;3211;53.452;-2.264;2022-11-15T10:02:26;11.70;99.90
6357;DHT22;3211;53.452;-2.264;2022-11-15T10:05:00;11.70;99.90
6357;DHT22;3211;53.452;-2.264;2022-11-15T10:07:34;11.70;99.90
6357;DHT22;3211;53.452;-2.264;2022-11-15T10:10:12;11.70;99.90
6357;DHT22;3211;53.452;-2.264;2022-11-15T10:12:46;11.70;99.90
6357;DHT22;3211;53.452;-2.264;2022-11-15T10:15:16;11.60;99.90
6357;DHT22;3211;53.452;-2.264;2022-11-15T10:18:07;11.70;99.90
6357;DHT22;3211;53.452;-2.264;2022-11-15T10:20:42;11.70;99.90
6357;DHT22;3211;53.452;-2.264;2022-11-15T10:23:14;11.70;99.90
6357;DHT22;3211;53.452;-2.264;2022-11-15T10:25:41;11.70;99.90
6357;DHT22;3211;53.452;-2.264;2022-11-15T10:28:15;11.60;99.90
6357;DHT22;3211;53.452;-2.264;2022-11-15T10:30:44;11.60;99.90
6357;DHT22;3211;53.452;-2.264;2022-11-15T10:33:21;11.70;99.90
6357;DHT22;3211;53.452;-2.264;2022-11-15T10:36:20;11.70;99.90
6357;DHT22;3211;53.452;-2.264;2022-11-15T10:38:54;11.70;99.90
6357;DHT22;3211;53.452;-2.264;2022-11-15T10:41:32;11.70;99.90
6357;DHT22;3211;53.452;-2.264;2022-11-15T10:44:21;11.70;99.90
6357;DHT22;3211;53.452;-2.264;2022-11-15T10:47:20;11.80;99.90
6357;DHT22;3211;53.452;-2.264;2022-11-15T10:49:59;11.80;99.90
6357;DHT22;3211;53.452;-2.264;2022-11-15T10:52:28;11.80;99.90
6357;DHT22;3211;53.452;-2.264;2022-11-15T10:55:00;11.80;99.90
6357;DHT22;3211;53.452;-2.264;2022-11-15T10:57:31;11.80;99.90
6357;DHT22;3211;53.452;-2.264;2022-11-15T11:00:02;11.90;99.90
6357;DHT22;3211;53.452;-2.264;2022-11-15T11:02:33;11.90;99.90
6357;DHT22;3211;53.452;-2.264;2022-11-15T11:05:02;11.90;99.90
6357;DHT22;3211;53.452;-2.264;2022-11-15T11:07:32;11.90;99.90
6357;DHT22;3211;53.452;-2.264;2022-11-15T11:10:01;11.90;99.90
6357;DHT22;3211;53.452;-2.264;2022-11-15T11:12:31;11.90;99.90
6357;DHT22;3211;53.452;-2.264;2022-11-15T11:15:02;12.00;99.90
6357;DHT22;3211;53.452;-2.264;2022-11-15T11:17:42;12.00;99.90
6357;DHT22;3211;53.452;-2.264;2022-11-15T11:20:18;12.00;99.90
6357;DHT22;3211;53.452;-2.264;2022-11-15T11:23:02;12.00;99.90
6357;DHT22;3211;53.452;-2.264;2022-11-15T11:25:34;12.00;99.90
6357;DHT22;3211;53.452;-2.264;2022-11-15T11:28:18;12.00;99.90
6357;DHT22;3211;53.452;-2.264;2022-11-15T11:31:04;12.00;99.90
6357;DHT22;3211;53.452;-2.264;2022-11-15T11:33:34;12.00;99.90
6357;DHT22;3211;53.452;-2.264;2022-11-15T11:36:14;12.00;99.90
6357;DHT22;3211;53.452;-2.264;2022-11-15T11:38:58;12.00;99.90
6357;DHT22;3211;53.452;-2.264;2022-11-15T11:41:42;12.00;99.90
6357;DHT22;3211;53.452;-2.264;2022-11-15T11:44:20;12.00;99.90
6357;DHT22;3211;53.452;-2.264;2022-11-15T11:46:55;12.00;99.90
6357;DHT22;3211;53.452;-2.264;2022-11-15T11:49:26;12.00;99.90
6357;DHT22;3211;53.452;-2.264;2022-11-15T11:52:00;12.00;99.90
6357;DHT22;3211;53.452;-2.264;2022-11-15T11:54:32;12.00;99.90
6357;DHT22;3211;53.452;-2.264;2022-11-15T11:57:09;12.00;99.90
6357;DHT22;3211;53.452;-2.264;2022-11-15T11:59:42;12.00;99.90
6357;DHT22;3211;53.452;-2.264;2022-11-15T12:02:16;12.00;99.90
6357;DHT22;3211;53.452;-2.264;2022-11-15T12:04:48;12.10;99.90
6357;DHT22;3211;53.452;-2.264;2022-11-15T12:07:20;12.10;99.90
6357;DHT22;3211;53.452;-2.264;2022-11-15T12:09:53;12.10;99.90
6357;DHT22;3211;53.452;-2.264;2022-11-15T12:12:27;12.10;99.90
6357;DHT22;3211;53.452;-2.264;2022-11-15T12:15:00;12.20;99.90
6357;DHT22;3211;53.452;-2.264;2022-11-15T12:17:31;12.10;99.90
6357;DHT22;3211;53.452;-2.264;2022-11-15T12:20:00;12.10;99.90
6357;DHT22;3211;53.452;-2.264;2022-11-15T12:22:36;12.10;99.90
6357;DHT22;3211;53.452;-2.264;2022-11-15T12:25:08;12.10;99.90
6357;DHT22;3211;53.452;-2.264;2022-11-15T12:27:45;12.10;99.90
6357;DHT22;3211;53.452;-2.264;2022-11-15T12:30:15;12.10;99.90
6357;DHT22;3211;53.452;-2.264;2022-11-15T12:32:52;12.10;99.90
6357;DHT22;3211;53.452;-2.264;2022-11-15T12:35:34;12.10;99.90
6357;DHT22;3211;53.452;-2.264;2022-11-15T12:38:02;12.10;99.90
6357;DHT22;3211;53.452;-2.264;2022-11-15T12:40:32;12.10;99.90
6357;DHT22;3211;53.452;-2.264;2022-11-15T12:45:46;12.10;99.90
6357;DHT22;3211;53.452;-2.264;2022-11-15T12:54:52;12.10;99.90
6357;DHT22;3211;53.452;-2.264;2022-11-15T12:57:41;11.90;99.90
6357;DHT22;3211;53.452;-2.264;2022-11-15T13:00:43;11.70;99.90
6357;DHT22;3211;53.452;-2.264;2022-11-15T13:03:27;11.60;99.90
6357;DHT22;3211;53.452;-2.264;2022-11-15T13:06:04;11.50;99.90
6357;DHT22;3211;53.452;-2.264;2022-11-15T13:08:42;11.40;99.90
6357;DHT22;3211;53.452;-2.264;2022-11-15T13:11:50;11.40;99.90
6357;DHT22;3211;53.452;-2.264;2022-11-15T13:14:43;11.40;99.90
6357;DHT22;3211;53.452;-2.264;2022-11-15T13:17:20;11.30;99.90
6357;DHT22;3211;53.452;-2.264;2022-11-15T13:19:53;11.30;99.90
6357;DHT22;3211;53.452;-2.264;2022-11-15T13:22:24;11.10;99.90
6357;DHT22;3211;53.452;-2.264;2022-11-15T13:25:19;11.00;99.90
6357;DHT22;3211;53.452;-2.264;2022-11-15T13:27:48;10.90;99.90
6357;DHT22;3211;53.452;-2.264;2022-11-15T13:30:20;10.90;99.90
6357;DHT22;3211;53.452;-2.264;2022-11-15T13:32:48;10.90;99.90
6357;DHT22;3211;53.452;-2.264;2022-11-15T13:35:20;10.90;99.90
6357;DHT22;3211;53.452;-2.264;2022-11-15T13:37:48;10.90;99.90
6357;DHT22;3211;53.452;-2.264;2022-11-15T13:40:27;10.90;99.90
6357;DHT22;3211;53.452;-2.264;2022-11-15T13:42:56;10.80;99.90
6357;DHT22;3211;53.452;-2.264;2022-11-15T13:45:24;10.80;99.90
6357;DHT22;3211;53.452;-2.264;2022-11-15T13:47:54;10.90;99.90
6357;DHT22;3211;53.452;-2.264;2022-11-15T13:50:24;10.80;99.90
6357;DHT22;3211;53.452;-2.264;2022-11-15T13:52:52;10.80;99.90
6357;DHT22;3211;53.452;-2.264;2022-11-15T13:55:22;10.90;99.90
6357;DHT22;3211;53.452;-2.264;2022-11-15T13:57:53;10.80;99.90
6357;DHT22;3211;53.452;-2.264;2022-11-15T14:00:36;10.80;99.90
6357;DHT22;3211;53.452;-2.264;2022-11-15T14:03:19;10.80;99.90
6357;DHT22;3211;53.452;-2.264;2022-11-15T14:06:07;10.90;99.90
6357;DHT22;3211;53.452;-2.264;2022-11-15T14:08:37;10.80;99.90
6357;DHT22;3211;53.452;-2.264;2022-11-15T14:11:11;10.70;99.90
6357;DHT22;3211;53.452;-2.264;2022-11-15T14:13:41;10.70;99.90
6357;DHT22;3211;53.452;-2.264;2022-11-15T14:16:16;10.80;99.90
6357;DHT22;3211;53.452;-2.264;2022-11-15T14:18:46;10.70;99.90
6357;DHT22;3211;53.452;-2.264;2022-11-15T14:21:13;10.80;99.90
6357;DHT22;3211;53.452;-2.264;2022-11-15T14:23:41;10.80;99.90
6357;DHT22;3211;53.452;-2.264;2022-11-15T14:26:26;10.80;99.90
6357;DHT22;3211;53.452;-2.264;2022-11-15T14:28:55;10.80;99.90
6357;DHT22;3211;53.452;-2.264;2022-11-15T14:31:23;10.70;99.90
6357;DHT22;3211;53.452;-2.264;2022-11-15T14:33:50;10.70;99.90
6357;DHT22;3211;53.452;-2.264;2022-11-15T14:36:19;10.60;99.90
6357;DHT22;3211;53.452;-2.264;2022-11-15T14:38:47;10.50;99.90
6357;DHT22;3211;53.452;-2.264;2022-11-15T14:41:18;10.50;99.90
6357;DHT22;3211;53.452;-2.264;2022-11-15T14:43:46;10.50;99.90
6357;DHT22;3211;53.452;-2.264;2022-11-15T14:46:15;10.40;99.90
6357;DHT22;3211;53.452;-2.264;2022-11-15T14:48:42;10.30;99.90
6357;DHT22;3211;53.452;-2.264;2022-11-15T14:51:12;10.30;99.90
6357;DHT22;3211;53.452;-2.264;2022-11-15T14:53:40;10.40;99.90
6357;DHT22;3211;53.452;-2.264;2022-11-15T14:56:07;10.30;99.90
6357;DHT22;3211;53.452;-2.264;2022-11-15T14:58:34;10.30;99.90
6357;DHT22;3211;53.452;-2.264;2022-11-15T15:01:02;10.30;99.90
6357;DHT22;3211;53.452;-2.264;2022-11-15T15:03:31;10.20;99.90
6357;DHT22;3211;53.452;-2.264;2022-11-15T15:05:57;10.40;99.90
6357;DHT22;3211;53.452;-2.264;2022-11-15T15:08:24;10.30;99.90
6357;DHT22;3211;53.452;-2.264;2022-11-15T15:10:51;10.50;99.90
6357;DHT22;3211;53.452;-2.264;2022-11-15T15:13:20;10.50;99.90
6357;DHT22;3211;53.452;-2.264;2022-11-15T15:15:48;10.60;99.90
6357;DHT22;3211;53.452;-2.264;2022-11-15T15:18:16;10.60;99.90
6357;DHT22;3211;53.452;-2.264;2022-11-15T15:20:49;10.40;99.90
6357;DHT22;3211;53.452;-2.264;2022-11-15T15:23:20;10.50;99.90
6357;DHT22;3211;53.452;-2.264;2022-11-15T15:25:49;10.50;99.90
6357;DHT22;3211;53.452;-2.264;2022-11-15T15:28:18;10.50;99.90
6357;DHT22;3211;53.452;-2.264;2022-11-15T15:30:45;10.50;99.90
6357;DHT22;3211;53.452;-2.264;2022-11-15T15:33:12;10.50;99.90
6357;DHT22;3211;53.452;-2.264;2022-11-15T15:35:39;10.40;99.90
6357;DHT22;3211;53.452;-2.264;2022-11-15T15:38:10;10.60;99.90
6357;DHT22;3211;53.452;-2.264;2022-11-15T15:40:37;10.50;99.90
6357;DHT22;3211;53.452;-2.264;2022-11-15T15:43:04;10.40;99.90
6357;DHT22;3211;53.452;-2.264;2022-11-15T15:45:36;10.40;99.90
6357;DHT22;3211;53.452;-2.264;2022-11-15T15:48:03;10.50;99.90
6357;DHT22;3211;53.452;-2.264;2022-11-15T15:50:33;10.50;99.90
6357;DHT22;3211;53.452;-2.264;2022-11-15T15:53:02;10.50;99.90
6357;DHT22;3211;53.452;-2.264;2022-11-15T15:55:31;10.50;99.90
6357;DHT22;3211;53.452;-2.264;2022-11-15T15:57:58;10.50;99.90
6357;DHT22;3211;53.452;-2.264;2022-11-15T16:00:25;10.50;99.90
6357;DHT22;3211;53.452;-2.264;2022-11-15T16:02:53;10.40;99.90
6357;DHT22;3211;53.452;-2.264;2022-11-15T16:05:21;10.40;99.90
6357;DHT22;3211;53.452;-2.264;2022-11-15T16:07:48;10.30;99.90
6357;DHT22;3211;53.452;-2.264;2022-11-15T16:10:22;10.30;99.90
6357;DHT22;3211;53.452;-2.264;2022-11-15T16:12:52;10.30;99.90
6357;DHT22;3211;53.452;-2.264;2022-11-15T16:15:19;10.20;99.90
6357;DHT22;3211;53.452;-2.264;2022-11-15T16:17:50;10.30;99.90
6357;DHT22;3211;53.452;-2.264;2022-11-15T16:20:30;10.30;99.90
6357;DHT22;3211;53.452;-2.264;2022-11-15T16:22:57;10.30;99.90
6357;DHT22;3211;53.452;-2.264;2022-11-15T16:25:24;10.30;99.90
6357;DHT22;3211;53.452;-2.264;2022-11-15T16:27:53;10.30;99.90
6357;DHT22;3211;53.452;-2.264;2022-11-15T16:30:22;10.30;99.90
6357;DHT22;3211;53.452;-2.264;2022-11-15T16:32:49;10.30;99.90
6357;DHT22;3211;53.452;-2.264;2022-11-15T16:35:16;10.30;99.90